createdAt,value
2019-05-21T00:03:41.999Z,18.89
2019-05-21T00:08:48.067Z,18.86
2019-05-21T00:13:53.940Z,18.72
2019-05-21T00:18:59.810Z,18.62
2019-05-21T00:24:05.781Z,18.65
2019-05-21T00:30:06.222Z,18.48
2019-05-21T00:36:06.856Z,18.39
2019-05-21T00:42:01.505Z,18.26
2019-05-21T00:47:10.440Z,18.13
2019-05-21T00:52:16.609Z,18.07
2019-05-21T00:57:22.628Z,17.98
2019-05-21T01:02:29.677Z,17.82
2019-05-21T01:07:35.650Z,17.86
2019-05-21T01:12:41.619Z,17.62
2019-05-21T01:17:49.153Z,17.46
2019-05-21T01:22:55.098Z,17.33
2019-05-21T01:28:01.069Z,17.30
2019-05-21T01:33:07.041Z,17.29
2019-05-21T01:38:13.215Z,17.25
2019-05-21T01:43:20.109Z,17.22
2019-05-21T01:48:26.082Z,17.22
2019-05-21T01:53:32.049Z,17.22
2019-05-21T01:58:38.022Z,17.22
2019-05-21T02:03:44.193Z,17.25
2019-05-21T02:08:50.266Z,17.25
2019-05-21T02:13:56.232Z,17.20
2019-05-21T02:19:02.196Z,17.39
2019-05-21T02:24:08.419Z,17.45
2019-05-21T02:29:14.452Z,17.56
2019-05-21T02:34:20.428Z,17.54
2019-05-21T02:39:26.310Z,17.63
2019-05-21T02:44:32.267Z,17.47
2019-05-21T02:49:38.238Z,17.44
2019-05-21T02:54:45.233Z,17.43
2019-05-21T02:59:52.842Z,17.54
2019-05-21T03:04:58.812Z,17.48
2019-05-21T03:10:05.504Z,17.41
2019-05-21T03:15:11.881Z,17.38
2019-05-21T03:20:17.954Z,17.49
2019-05-21T03:25:24.029Z,17.44
2019-05-21T03:30:30.112Z,17.55
2019-05-21T03:35:36.176Z,17.51
2019-05-21T03:40:43.069Z,17.44
2019-05-21T03:45:49.034Z,17.52
2019-05-21T03:50:55.416Z,17.51
2019-05-21T03:56:01.398Z,17.52
2019-05-21T04:01:07.408Z,17.51
2019-05-21T04:06:13.342Z,17.55
2019-05-21T04:11:19.406Z,17.64
2019-05-21T04:16:40.226Z,17.79
2019-05-21T04:21:46.398Z,17.81
2019-05-21T04:26:52.471Z,17.86
2019-05-21T04:31:58.466Z,17.84
2019-05-21T04:37:11.009Z,17.86
2019-05-21T04:42:12.841Z,17.73
2019-05-21T04:47:19.253Z,17.91
2019-05-21T04:52:26.506Z,18.03
2019-05-21T04:57:32.619Z,18.10
2019-05-21T05:02:41.521Z,18.17
2019-05-21T05:07:46.775Z,18.14
2019-05-21T05:12:52.782Z,18.35
2019-05-21T05:17:58.828Z,18.43
2019-05-21T05:23:04.913Z,18.67
2019-05-21T05:28:11.623Z,18.62
2019-05-21T05:33:17.732Z,18.78
2019-05-21T05:38:23.851Z,18.84
2019-05-21T05:43:30.326Z,18.81
2019-05-21T05:48:37.951Z,18.81
2019-05-21T05:53:59.382Z,18.96
2019-05-21T05:59:05.992Z,18.96
2019-05-21T06:04:12.028Z,18.92
2019-05-21T06:09:18.045Z,18.97
2019-05-21T06:14:24.119Z,18.93
2019-05-21T06:19:30.385Z,18.89
2019-05-21T06:24:36.709Z,18.84
2019-05-21T06:29:43.248Z,18.91
2019-05-21T06:34:49.488Z,19.03
2019-05-21T06:39:55.575Z,19.21
2019-05-21T06:45:01.849Z,19.90
2019-05-21T06:50:08.691Z,20.52
2019-05-21T06:55:14.834Z,20.40
2019-05-21T07:00:21.686Z,20.40
2019-05-21T07:05:28.125Z,20.82
2019-05-21T07:10:34.773Z,20.44
2019-05-21T07:15:40.840Z,20.33
2019-05-21T07:20:47.019Z,19.86
2019-05-21T07:25:53.128Z,20.09
2019-05-21T07:30:59.097Z,20.51
2019-05-21T07:36:05.594Z,20.50
2019-05-21T07:41:11.626Z,20.33
2019-05-21T07:46:17.768Z,20.51
2019-05-21T07:51:23.815Z,20.83
2019-05-21T07:56:29.944Z,21.10
2019-05-21T08:01:36.916Z,20.95
2019-05-21T08:06:43.088Z,20.92
2019-05-21T08:11:49.835Z,21.14
2019-05-21T08:16:56.076Z,21.64
2019-05-21T08:22:02.559Z,21.87
2019-05-21T08:27:08.835Z,22.01
2019-05-21T08:32:14.911Z,21.98
2019-05-21T08:37:20.983Z,21.94
2019-05-21T08:42:27.891Z,21.93
2019-05-21T08:47:34.187Z,22.15
2019-05-21T08:52:40.366Z,22.45
2019-05-21T08:58:03.761Z,22.51
2019-05-21T09:02:54.695Z,22.47
2019-05-21T09:08:00.797Z,22.77
2019-05-21T09:13:07.089Z,22.98
2019-05-21T09:18:13.111Z,22.98
2019-05-21T09:23:19.529Z,22.69
2019-05-21T09:28:25.529Z,22.68
2019-05-21T09:33:32.090Z,22.80
2019-05-21T09:38:38.021Z,23.13
2019-05-21T09:43:44.037Z,23.55
2019-05-21T09:48:50.205Z,23.66
2019-05-21T09:53:56.280Z,23.67
2019-05-21T09:59:23.235Z,23.29
2019-05-21T10:04:29.464Z,22.92
2019-05-21T10:09:36.038Z,23.37
2019-05-21T10:14:42.177Z,23.66
2019-05-21T10:19:48.507Z,24.22
2019-05-21T10:24:54.545Z,24.29
2019-05-21T10:30:00.705Z,24.31
2019-05-21T10:35:07.654Z,24.43
2019-05-21T10:40:14.911Z,24.92
2019-05-21T10:45:21.491Z,24.91
2019-05-21T10:50:27.967Z,24.34
2019-05-21T10:55:34.197Z,24.45
2019-05-21T11:00:40.728Z,24.89
2019-05-21T11:05:51.416Z,25.51
2019-05-21T11:10:57.588Z,25.72
2019-05-21T11:16:05.095Z,25.86
2019-05-21T11:21:11.205Z,25.67
2019-05-21T11:26:17.467Z,25.23
2019-05-21T11:31:24.146Z,25.02
2019-05-21T11:36:30.302Z,24.71
2019-05-21T11:41:36.705Z,24.84
2019-05-21T11:46:42.753Z,25.11
2019-05-21T11:51:48.932Z,24.94
2019-05-21T11:56:55.110Z,25.00
2019-05-21T12:02:01.257Z,24.94
2019-05-21T12:07:07.363Z,24.86
2019-05-21T12:12:13.939Z,24.78
2019-05-21T12:17:20.353Z,24.52
2019-05-21T12:22:26.449Z,24.57
2019-05-21T12:27:32.531Z,25.05
2019-05-21T12:32:39.406Z,25.07
2019-05-21T12:37:45.441Z,25.00
2019-05-21T12:42:51.958Z,25.22
2019-05-21T12:47:58.352Z,25.45
2019-05-21T12:53:04.421Z,25.30
2019-05-21T12:58:10.655Z,25.31
2019-05-21T13:03:17.036Z,25.33
2019-05-21T13:08:23.506Z,25.33
2019-05-21T13:13:29.994Z,25.19
2019-05-21T13:18:36.536Z,25.25
2019-05-21T13:23:42.793Z,25.59
2019-05-21T13:28:49.156Z,25.69
2019-05-21T13:33:56.046Z,25.49
2019-05-21T13:39:02.667Z,25.36
2019-05-21T13:44:09.815Z,25.16
2019-05-21T13:49:16.663Z,25.05
2019-05-21T13:54:23.163Z,25.25
2019-05-21T13:59:29.680Z,25.57
2019-05-21T14:04:36.671Z,25.63
2019-05-21T14:09:42.861Z,25.73
2019-05-21T14:14:49.447Z,25.65
2019-05-21T14:19:55.553Z,25.91
2019-05-21T14:25:01.804Z,26.14
2019-05-21T14:30:11.870Z,26.10
2019-05-21T14:35:18.226Z,26.01
2019-05-21T14:40:31.611Z,25.72
2019-05-21T14:45:34.586Z,25.57
2019-05-21T14:50:40.958Z,25.55
2019-05-21T14:55:47.225Z,25.47
2019-05-21T15:00:53.463Z,25.26
2019-05-21T15:05:59.481Z,24.98
2019-05-21T15:11:05.650Z,24.73
2019-05-21T15:16:12.644Z,24.43
2019-05-21T15:21:20.364Z,24.20
2019-05-21T15:26:26.946Z,23.07
2019-05-21T15:31:33.361Z,21.79
2019-05-21T15:36:40.429Z,21.32
2019-05-21T15:41:46.557Z,21.10
2019-05-21T15:46:53.083Z,20.94
2019-05-21T15:51:59.435Z,20.89
2019-05-21T15:57:05.289Z,21.10
2019-05-21T16:02:11.418Z,21.09
2019-05-21T16:07:17.505Z,21.21
2019-05-21T16:12:23.499Z,21.45
2019-05-21T16:17:29.947Z,21.67
2019-05-21T16:22:36.100Z,21.91
2019-05-21T16:27:42.349Z,21.92
2019-05-21T16:32:48.731Z,21.70
2019-05-21T16:37:55.353Z,21.65
2019-05-21T16:43:01.425Z,21.72
2019-05-21T16:48:08.096Z,21.71
2019-05-21T16:53:14.553Z,21.77
2019-05-21T16:58:20.617Z,21.96
2019-05-21T17:03:26.637Z,21.84
2019-05-21T17:08:32.763Z,21.65
2019-05-21T17:13:38.690Z,21.56
2019-05-21T17:18:45.268Z,21.56
2019-05-21T17:23:51.344Z,21.24
2019-05-21T17:28:57.419Z,20.76
2019-05-21T17:34:03.482Z,19.98
2019-05-21T17:39:09.995Z,19.30
2019-05-21T17:44:16.031Z,19.26
2019-05-21T17:49:22.109Z,19.12
2019-05-21T17:54:28.103Z,19.06
2019-05-21T17:59:34.297Z,18.93
2019-05-21T18:04:41.454Z,18.85
2019-05-21T18:09:47.955Z,18.98
2019-05-21T18:14:54.249Z,19.02
2019-05-21T18:20:02.144Z,19.03
2019-05-21T18:25:10.490Z,19.12
2019-05-21T18:30:18.073Z,19.14
2019-05-21T18:35:24.966Z,19.14
2019-05-21T18:40:31.036Z,19.05
2019-05-21T18:45:37.311Z,18.68
2019-05-21T18:50:43.614Z,18.37
2019-05-21T18:55:49.862Z,18.45
2019-05-21T19:00:56.051Z,18.45
2019-05-21T19:06:02.216Z,18.46
2019-05-21T19:11:08.604Z,18.42
2019-05-21T19:16:14.773Z,18.31
2019-05-21T19:21:21.052Z,18.37
2019-05-21T19:26:27.229Z,18.36
2019-05-21T19:31:33.512Z,18.37
2019-05-21T19:36:39.513Z,18.29
2019-05-21T19:41:45.452Z,18.24
2019-05-21T19:46:51.415Z,18.29
2019-05-21T19:51:57.600Z,18.31
2019-05-21T19:57:03.769Z,18.28
2019-05-21T20:02:10.402Z,18.21
2019-05-21T20:07:17.882Z,18.16
2019-05-21T20:12:25.161Z,18.06
2019-05-21T20:17:33.176Z,17.90
2019-05-21T20:22:41.406Z,17.74
2019-05-21T20:27:48.297Z,17.79
2019-05-21T20:32:54.601Z,17.76
2019-05-21T20:38:01.977Z,17.74
2019-05-21T20:43:08.211Z,17.67
2019-05-21T20:48:15.089Z,17.51
2019-05-21T20:53:22.042Z,17.50
2019-05-21T20:58:28.728Z,17.49
2019-05-21T21:03:36.133Z,17.51
2019-05-21T21:08:42.102Z,17.34
2019-05-21T21:13:49.614Z,17.29
2019-05-21T21:18:55.575Z,17.31
2019-05-21T21:24:02.712Z,17.29
2019-05-21T21:29:09.674Z,17.19
2019-05-21T21:34:17.087Z,17.20
2019-05-21T21:39:23.143Z,17.17
2019-05-21T21:44:34.214Z,16.99
2019-05-21T21:49:36.502Z,17.02
2019-05-21T21:54:43.826Z,17.05
2019-05-21T21:59:50.100Z,16.98
2019-05-21T22:04:57.869Z,16.92
2019-05-21T22:10:07.059Z,16.91
2019-05-21T22:15:13.433Z,16.92
2019-05-21T22:20:19.410Z,17.03
2019-05-21T22:25:25.385Z,17.05
2019-05-21T22:30:31.865Z,16.93
2019-05-21T22:35:39.175Z,16.98
2019-05-21T22:40:45.344Z,16.89
2019-05-21T22:45:51.836Z,16.68
2019-05-21T22:50:57.794Z,16.60
2019-05-21T22:56:03.771Z,16.57
2019-05-21T23:01:11.688Z,16.47
2019-05-21T23:06:16.932Z,16.39
2019-05-21T23:11:23.326Z,16.41
2019-05-21T23:16:31.439Z,16.49
2019-05-21T23:21:49.904Z,16.42
2019-05-21T23:26:56.392Z,16.20
2019-05-21T23:32:02.872Z,16.22
2019-05-21T23:37:10.694Z,16.13
2019-05-21T23:42:28.673Z,16.18
2019-05-21T23:47:23.754Z,16.21
2019-05-21T23:52:31.670Z,16.08
2019-05-21T23:57:37.411Z,16.06
